Time;durP1;ratioP1;P1;durP2;ratioP2;P2;SDS_P1;SDS_P2;PMS_P1;PMS_P2;Temp;Humidity;BMP_temperature;BMP_pressure;BME280_temperature;BME280_humidity;BME280_pressure;Samples;Min_cycle;Max_cycle;Signal;HPM_P1;HPM_P2
2023/07/23 00:00:38;;;;;;;2.90;2.20;;;20.60;91.90;;;;;;5033311;28;20583;-59
2023/07/23 00:03:05;;;;;;;4.25;2.40;;;20.60;91.80;;;;;;5032925;28;20230;-58
2023/07/23 00:05:31;;;;;;;4.22;2.20;;;20.60;91.90;;;;;;5033309;28;20721;-58
2023/07/23 00:08:00;;;;;;;2.67;2.00;;;20.70;91.90;;;;;;5032087;28;20707;-58
2023/07/23 00:10:27;;;;;;;2.40;2.00;;;20.80;91.80;;;;;;5032910;28;20209;-58
2023/07/23 00:12:54;;;;;;;3.08;2.10;;;20.80;91.70;;;;;;5032820;28;20664;-59
2023/07/23 00:15:20;;;;;;;3.47;2.22;;;20.80;91.60;;;;;;5032508;28;20222;-57
2023/07/23 00:17:48;;;;;;;4.30;2.30;;;20.80;91.60;;;;;;5032226;28;20206;-58
2023/07/23 00:20:15;;;;;;;3.28;2.38;;;20.90;91.60;;;;;;5033080;28;20209;-58
2023/07/23 00:22:42;;;;;;;4.07;2.50;;;20.80;91.60;;;;;;5032640;28;20615;-58
2023/07/23 00:25:10;;;;;;;2.80;2.20;;;20.80;91.60;;;;;;5033141;28;20252;-58
2023/07/23 00:27:37;;;;;;;3.08;2.08;;;20.80;91.50;;;;;;5032644;28;20260;-59
2023/07/23 00:30:05;;;;;;;2.60;2.20;;;20.70;91.50;;;;;;5032453;28;20206;-59
2023/07/23 00:32:31;;;;;;;3.05;2.17;;;20.70;91.60;;;;;;5032351;28;20699;-60
2023/07/23 00:34:58;;;;;;;2.78;2.10;;;20.70;91.70;;;;;;5032585;28;20217;-58
2023/07/23 00:37:27;;;;;;;2.33;1.85;;;20.60;91.90;;;;;;5032212;28;20216;-59
2023/07/23 00:39:53;;;;;;;3.60;2.30;;;20.50;92.00;;;;;;5032626;28;20302;-60
2023/07/23 00:42:22;;;;;;;4.57;2.10;;;20.50;92.40;;;;;;5032216;28;20226;-59
2023/07/23 00:44:48;;;;;;;3.00;2.25;;;20.50;92.20;;;;;;5031771;28;20210;-57
2023/07/23 00:47:17;;;;;;;3.30;1.98;;;20.50;92.20;;;;;;5031817;28;20202;-58
2023/07/23 00:49:44;;;;;;;3.67;1.90;;;20.50;92.20;;;;;;5032344;28;20233;-58
2023/07/23 00:52:12;;;;;;;2.55;2.17;;;20.50;92.20;;;;;;5032240;28;20654;-58
2023/07/23 00:54:38;;;;;;;5.82;2.08;;;20.50;92.30;;;;;;5031760;28;20702;-58
2023/07/23 00:57:06;;;;;;;2.40;2.00;;;20.40;92.40;;;;;;5031674;28;20237;-58
2023/07/23 00:59:34;;;;;;;4.97;2.30;;;20.40;92.20;;;;;;5031813;28;20296;-58
2023/07/23 01:02:01;;;;;;;3.47;2.17;;;20.50;92.20;;;;;;5031706;28;20230;-58
2023/07/23 01:04:28;;;;;;;5.80;2.03;;;20.40;92.40;;;;;;5031856;28;20210;-59
2023/07/23 01:06:57;;;;;;;4.43;2.20;;;20.40;92.00;;;;;;5031408;28;20257;-58
2023/07/23 01:09:25;;;;;;;5.05;2.15;;;20.40;92.10;;;;;;5031724;28;20210;-58
2023/07/23 01:11:53;;;;;;;2.38;1.90;;;20.40;92.00;;;;;;5031447;28;20274;-59
2023/07/23 01:14:20;;;;;;;2.70;1.95;;;20.40;92.00;;;;;;5031649;28;20218;-58
2023/07/23 01:16:49;;;;;;;2.78;2.00;;;20.40;92.10;;;;;;5031485;28;20237;-59
2023/07/23 01:19:16;;;;;;;4.07;2.38;;;20.40;92.00;;;;;;5031043;28;20236;-57
2023/07/23 01:21:43;;;;;;;2.58;1.80;;;20.40;92.10;;;;;;5031465;28;20214;-59
2023/07/23 01:24:11;;;;;;;4.00;2.30;;;20.40;92.20;;;;;;5031523;28;20218;-58
2023/07/23 01:26:38;;;;;;;2.17;1.98;;;20.30;92.30;;;;;;5030875;28;20261;-59
2023/07/23 01:29:05;;;;;;;2.17;1.95;;;20.30;92.30;;;;;;5031407;28;20284;-58
2023/07/23 01:31:31;;;;;;;3.30;2.15;;;20.30;92.40;;;;;;5031426;28;20206;-59
2023/07/23 01:34:04;;;;;;;2.13;1.83;;;20.30;92.50;;;;;;5031334;28;20624;-58
2023/07/23 01:36:30;;;;;;;4.28;1.90;;;20.30;92.40;;;;;;5031121;28;20320;-59
2023/07/23 01:38:57;;;;;;;3.10;1.80;;;20.20;92.40;;;;;;5031525;28;20210;-58
2023/07/23 01:41:26;;;;;;;6.80;2.05;;;20.20;92.40;;;;;;5031627;28;20209;-59
2023/07/23 01:43:53;;;;;;;2.20;1.83;;;20.20;92.40;;;;;;5031159;28;20710;-58
2023/07/23 01:46:19;;;;;;;2.85;2.13;;;20.30;92.40;;;;;;5031101;28;20230;-58
2023/07/23 01:48:46;;;;;;;2.50;1.80;;;20.30;92.50;;;;;;5031361;28;20210;-58
2023/07/23 01:51:13;;;;;;;3.03;2.10;;;20.20;92.50;;;;;;5031247;28;20237;-60
2023/07/23 01:53:39;;;;;;;2.83;2.17;;;20.20;92.60;;;;;;5030917;28;20202;-59
2023/07/23 01:56:06;;;;;;;2.25;1.70;;;20.20;92.60;;;;;;5031018;28;20291;-58
2023/07/23 01:58:34;;;;;;;2.70;1.85;;;20.20;92.60;;;;;;5031313;28;20203;-59
2023/07/23 02:01:04;;;;;;;2.03;1.80;;;20.20;92.70;;;;;;5031278;28;20638;-59
2023/07/23 02:03:31;;;;;;;4.45;2.15;;;20.20;92.80;;;;;;5031194;28;20230;-58
2023/07/23 02:06:00;;;;;;;2.42;1.98;;;20.20;92.80;;;;;;5030673;28;20658;-59
2023/07/23 02:08:27;;;;;;;2.97;2.20;;;20.20;92.90;;;;;;5030882;28;20218;-57
2023/07/23 02:10:59;;;;;;;2.60;2.10;;;20.10;93.00;;;;;;5031200;28;20202;-59
2023/07/23 02:13:25;;;;;;;5.10;2.30;;;20.10;92.90;;;;;;5030941;28;20238;-58
2023/07/23 02:15:53;;;;;;;2.70;2.10;;;20.10;93.10;;;;;;5030829;28;20230;-59
2023/07/23 02:18:20;;;;;;;2.42;1.90;;;20.10;93.10;;;;;;5030875;28;20221;-59
2023/07/23 02:20:47;;;;;;;2.95;2.20;;;20.10;93.30;;;;;;5030872;28;20209;-58
2023/07/23 02:23:15;;;;;;;4.07;2.00;;;20.00;93.30;;;;;;5031265;28;20633;-59
2023/07/23 02:25:42;;;;;;;3.38;2.30;;;20.00;93.30;;;;;;5030610;28;20583;-59
2023/07/23 02:28:09;;;;;;;2.88;2.20;;;20.00;93.30;;;;;;5031030;28;20207;-59
2023/07/23 02:30:36;;;;;;;4.15;1.90;;;20.00;93.60;;;;;;5031457;28;20206;-58
2023/07/23 02:33:04;;;;;;;3.00;2.20;;;19.90;93.60;;;;;;5034755;28;20198;-59
2023/07/23 02:35:31;;;;;;;4.07;2.90;;;19.90;93.70;;;;;;5034322;28;20229;-59
2023/07/23 02:37:57;;;;;;;2.53;2.17;;;19.90;93.70;;;;;;5034475;28;20217;-59
2023/07/23 02:40:24;;;;;;;5.07;2.95;;;19.90;93.80;;;;;;5034722;28;20285;-58
2023/07/23 02:42:51;;;;;;;3.22;2.45;;;19.90;93.90;;;;;;5034550;28;20235;-60
2023/07/23 02:45:18;;;;;;;3.10;2.20;;;19.80;93.90;;;;;;5034379;28;20308;-59
2023/07/23 02:47:45;;;;;;;2.67;2.10;;;19.90;93.90;;;;;;5034072;28;20203;-60
2023/07/23 02:50:13;;;;;;;4.47;1.90;;;19.90;93.90;;;;;;5034181;28;20323;-58
2023/07/23 02:52:39;;;;;;;3.35;2.22;;;19.80;93.90;;;;;;5034457;28;20248;-57
2023/07/23 02:55:06;;;;;;;4.00;1.88;;;19.90;94.00;;;;;;5034292;28;20229;-59
2023/07/23 02:57:33;;;;;;;3.03;2.13;;;19.90;93.90;;;;;;5034046;28;20237;-59
2023/07/23 03:00:00;;;;;;;2.33;2.05;;;19.90;93.70;;;;;;5034014;28;20585;-59
2023/07/23 03:02:27;;;;;;;2.83;2.25;;;19.90;93.60;;;;;;5034449;28;20231;-58
2023/07/23 03:04:53;;;;;;;2.25;1.90;;;19.90;93.70;;;;;;5034036;28;20206;-58
2023/07/23 03:07:21;;;;;;;6.05;3.38;;;19.90;93.70;;;;;;5033559;28;20205;-58
2023/07/23 03:09:48;;;;;;;3.25;2.35;;;19.90;93.70;;;;;;5034113;28;20210;-58
2023/07/23 03:12:15;;;;;;;2.80;2.25;;;20.00;93.60;;;;;;5033899;28;20667;-59
2023/07/23 03:14:42;;;;;;;4.32;2.47;;;20.00;93.70;;;;;;5034062;28;20210;-60
2023/07/23 03:17:08;;;;;;;2.30;1.95;;;19.90;93.70;;;;;;5033601;28;20214;-61
2023/07/23 03:19:35;;;;;;;2.97;2.40;;;19.90;93.90;;;;;;5034079;28;20321;-59
2023/07/23 03:22:02;;;;;;;3.00;2.20;;;19.90;94.00;;;;;;5033904;28;20452;-58
2023/07/23 03:24:30;;;;;;;4.57;2.63;;;19.80;94.00;;;;;;5033473;28;20594;-59
2023/07/23 03:26:57;;;;;;;2.70;2.20;;;19.80;94.00;;;;;;5033041;28;20234;-59
2023/07/23 03:29:23;;;;;;;3.45;2.38;;;19.80;94.10;;;;;;5033671;28;20221;-59
2023/07/23 03:31:50;;;;;;;4.03;2.10;;;19.80;94.40;;;;;;5033561;28;20233;-59
2023/07/23 03:34:17;;;;;;;2.33;2.10;;;19.70;94.40;;;;;;5033641;28;20213;-58
2023/07/23 03:36:43;;;;;;;2.63;1.90;;;19.70;94.50;;;;;;5033290;28;20234;-60
2023/07/23 03:39:14;;;;;;;3.10;2.20;;;19.70;94.50;;;;;;5033515;28;20214;-60
2023/07/23 03:41:42;;;;;;;3.90;2.17;;;19.70;94.60;;;;;;5033268;28;20573;-59
2023/07/23 03:44:08;;;;;;;2.65;2.05;;;19.70;94.60;;;;;;5032449;28;20237;-59
2023/07/23 03:46:43;;;;;;;4.57;2.10;;;19.60;94.70;;;;;;5033189;28;20365;-59
2023/07/23 03:49:09;;;;;;;5.68;2.65;;;19.60;94.80;;;;;;5033307;28;20700;-57
2023/07/23 03:51:36;;;;;;;2.55;1.83;;;19.60;94.90;;;;;;5033065;28;20596;-59
2023/07/23 03:54:03;;;;;;;2.78;2.10;;;19.60;94.90;;;;;;5033224;28;20202;-59
2023/07/23 03:56:29;;;;;;;4.40;2.00;;;19.60;94.80;;;;;;5032851;28;20313;-59
2023/07/23 03:58:57;;;;;;;3.08;2.00;;;19.70;94.90;;;;;;5032897;28;20601;-58
2023/07/23 04:01:24;;;;;;;2.80;2.10;;;19.60;94.90;;;;;;5033037;28;20210;-60
2023/07/23 04:03:51;;;;;;;2.47;2.08;;;19.70;94.90;;;;;;5033010;28;20480;-59
2023/07/23 04:06:17;;;;;;;3.05;2.03;;;19.70;94.80;;;;;;5032641;28;20231;-59
2023/07/23 04:08:44;;;;;;;2.78;2.15;;;19.70;94.90;;;;;;5032852;28;20206;-60
2023/07/23 04:11:11;;;;;;;2.03;1.75;;;19.80;94.80;;;;;;5033044;28;20218;-58
2023/07/23 04:13:37;;;;;;;4.38;2.70;;;19.80;94.80;;;;;;5032873;28;20548;-58
2023/07/23 04:16:10;;;;;;;3.25;2.30;;;19.80;94.80;;;;;;5032808;28;20230;-59
2023/07/23 04:18:46;;;;;;;3.00;2.30;;;19.80;94.90;;;;;;5032919;28;20643;-58
2023/07/23 04:21:13;;;;;;;4.35;2.50;;;19.90;94.90;;;;;;5032983;28;20214;-59
2023/07/23 04:23:40;;;;;;;3.40;2.40;;;19.90;94.90;;;;;;5032709;28;20249;-59
2023/07/23 04:26:06;;;;;;;2.60;1.98;;;20.00;94.80;;;;;;5032369;28;20740;-59
2023/07/23 04:28:33;;;;;;;2.70;2.30;;;20.10;94.80;;;;;;5032713;28;20217;-58
2023/07/23 04:31:00;;;;;;;2.78;2.25;;;20.10;94.70;;;;;;5032670;28;20213;-59
2023/07/23 04:33:28;;;;;;;3.38;2.33;;;20.20;94.70;;;;;;5032660;28;20206;-59
2023/07/23 04:35:54;;;;;;;3.78;1.95;;;20.20;94.60;;;;;;5032062;28;20256;-59
2023/07/23 04:38:21;;;;;;;2.35;2.00;;;20.30;94.50;;;;;;5032130;28;20289;-59
2023/07/23 04:40:48;;;;;;;5.00;2.17;;;20.40;94.50;;;;;;5032324;28;20221;-60
2023/07/23 04:43:14;;;;;;;2.92;2.08;;;20.50;94.40;;;;;;5032385;28;20237;-59
2023/07/23 04:45:41;;;;;;;3.90;2.25;;;20.60;94.20;;;;;;5031979;28;20717;-59
2023/07/23 04:48:10;;;;;;;2.65;2.10;;;20.70;94.00;;;;;;5032156;28;20214;-59
2023/07/23 04:50:38;;;;;;;2.42;2.13;;;20.80;93.90;;;;;;5031969;28;20268;-58
2023/07/23 04:53:05;;;;;;;3.67;2.08;;;20.80;93.80;;;;;;5032422;28;20206;-60
2023/07/23 04:55:32;;;;;;;2.97;1.85;;;20.90;93.70;;;;;;5032021;28;20280;-60
2023/07/23 04:57:59;;;;;;;3.67;2.40;;;21.00;93.70;;;;;;5032195;28;20217;-59
2023/07/23 05:00:27;;;;;;;2.92;2.20;;;21.10;93.60;;;;;;5031987;28;20210;-59
2023/07/23 05:02:53;;;;;;;4.05;2.40;;;21.20;93.40;;;;;;5031757;28;20297;-59
2023/07/23 05:05:20;;;;;;;2.90;2.13;;;21.30;93.10;;;;;;5031705;28;20241;-59
2023/07/23 05:07:48;;;;;;;3.33;2.22;;;21.50;92.80;;;;;;5031573;28;20555;-59
2023/07/23 05:10:15;;;;;;;3.22;2.03;;;21.70;92.60;;;;;;5031936;28;20264;-58
2023/07/23 05:12:42;;;;;;;5.25;2.20;;;21.80;92.50;;;;;;5031842;28;20213;-58
2023/07/23 05:15:13;;;;;;;3.08;2.15;;;21.80;92.20;;;;;;5031583;28;20733;-66
2023/07/23 05:17:40;;;;;;;2.80;2.10;;;22.00;92.00;;;;;;5031721;28;20209;-59
2023/07/23 05:20:09;;;;;;;3.22;2.22;;;22.10;91.80;;;;;;5031550;28;20234;-58
2023/07/23 05:22:38;;;;;;;2.90;2.10;;;22.10;91.80;;;;;;5031613;28;20657;-58
2023/07/23 05:25:07;;;;;;;3.50;2.47;;;22.20;91.60;;;;;;5031293;28;20695;-61
2023/07/23 05:27:34;;;;;;;3.28;2.30;;;22.30;91.50;;;;;;5031337;28;20202;-60
2023/07/23 05:30:02;;;;;;;2.00;1.80;;;22.30;91.30;;;;;;5031424;28;20217;-59
2023/07/23 05:32:29;;;;;;;6.72;2.35;;;22.40;91.10;;;;;;5031235;28;20210;-59
2023/07/23 05:34:56;;;;;;;3.58;2.25;;;22.60;90.90;;;;;;5031759;28;20208;-59
2023/07/23 05:37:24;;;;;;;2.50;1.90;;;22.90;90.60;;;;;;5031328;28;20202;-59
2023/07/23 05:39:52;;;;;;;2.85;2.00;;;23.90;88.20;;;;;;5031538;28;20206;-60
2023/07/23 05:42:20;;;;;;;3.70;1.95;;;25.10;84.70;;;;;;5031525;28;20210;-58
2023/07/23 05:44:47;;;;;;;2.60;1.92;;;26.70;79.30;;;;;;5031174;28;20229;-60
2023/07/23 05:47:13;;;;;;;2.42;1.98;;;28.30;73.10;;;;;;5031508;28;20210;-60
2023/07/23 05:49:40;;;;;;;3.05;2.10;;;29.60;69.20;;;;;;5031454;28;20206;-59
2023/07/23 05:52:07;;;;;;;3.80;1.95;;;31.00;65.10;;;;;;5031363;28;20206;-59
2023/07/23 05:54:34;;;;;;;4.90;2.00;;;32.50;60.50;;;;;;5031248;28;20210;-57
2023/07/23 05:57:01;;;;;;;2.63;2.17;;;33.60;56.90;;;;;;5031028;28;20234;-58
2023/07/23 05:59:29;;;;;;;3.10;2.15;;;34.40;54.80;;;;;;5031172;28;20210;-60
2023/07/23 06:01:55;;;;;;;1.98;1.80;;;34.90;53.50;;;;;;5031349;28;20263;-59
2023/07/23 06:04:22;;;;;;;2.58;1.75;;;35.50;52.00;;;;;;5031395;28;20272;-58
2023/07/23 06:06:50;;;;;;;4.80;1.75;;;36.20;50.40;;;;;;5033291;28;20233;-59
2023/07/23 06:09:18;;;;;;;3.97;2.10;;;37.00;49.00;;;;;;5035129;28;20674;-59
2023/07/23 06:11:45;;;;;;;3.10;1.90;;;37.50;47.80;;;;;;5035100;28;20289;-59
2023/07/23 06:14:11;;;;;;;4.78;2.03;;;38.30;46.50;;;;;;5034945;28;20243;-60
2023/07/23 06:16:39;;;;;;;3.15;2.00;;;39.00;45.60;;;;;;5034584;28;20237;-60
2023/07/23 06:19:06;;;;;;;2.45;2.20;;;39.70;44.10;;;;;;5035084;28;20209;-58
2023/07/23 06:21:33;;;;;;;2.45;1.70;;;39.80;43.40;;;;;;5034895;28;20252;-58
2023/07/23 06:24:00;;;;;;;2.40;1.98;;;40.20;42.90;;;;;;5034770;28;20237;-59
2023/07/23 06:26:27;;;;;;;2.20;1.75;;;40.90;42.30;;;;;;5034802;28;20664;-56
2023/07/23 06:28:53;;;;;;;4.13;1.95;;;41.60;41.10;;;;;;5034622;28;20573;-57
2023/07/23 06:31:20;;;;;;;3.35;2.00;;;42.40;39.90;;;;;;5034764;28;20209;-55
2023/07/23 06:33:49;;;;;;;2.28;1.90;;;42.10;39.80;;;;;;5034621;28;20205;-56
2023/07/23 06:36:15;;;;;;;2.38;1.80;;;41.70;39.00;;;;;;5034117;28;20233;-56
2023/07/23 06:38:42;;;;;;;1.80;1.67;;;41.20;39.40;;;;;;5034624;28;20228;-55
2023/07/23 06:41:09;;;;;;;3.85;1.90;;;40.40;40.70;;;;;;5034356;28;20206;-57
2023/07/23 06:43:36;;;;;;;2.35;1.80;;;39.80;40.90;;;;;;5034475;28;20240;-56
2023/07/23 06:46:02;;;;;;;2.70;1.90;;;39.60;41.40;;;;;;5033937;28;20676;-56
2023/07/23 06:48:29;;;;;;;2.47;1.98;;;39.20;41.20;;;;;;5034578;28;20207;-57
2023/07/23 06:50:57;;;;;;;2.95;2.28;;;39.10;41.50;;;;;;5034297;28;20218;-56
2023/07/23 06:53:24;;;;;;;1.95;1.67;;;39.90;40.60;;;;;;5034716;28;20514;-56
2023/07/23 06:56:02;;;;;;;2.70;1.90;;;41.30;39.20;;;;;;5033577;28;20725;-56
2023/07/23 06:58:30;;;;;;;3.83;1.88;;;42.50;37.60;;;;;;5034915;28;20205;-56
2023/07/23 07:00:57;;;;;;;5.00;3.17;;;42.60;37.10;;;;;;5033999;28;20567;-55
2023/07/23 07:03:24;;;;;;;2.10;1.85;;;42.80;36.80;;;;;;5034146;28;20206;-55
2023/07/23 07:05:51;;;;;;;2.70;2.13;;;43.60;36.40;;;;;;5033703;28;20225;-55
2023/07/23 07:08:19;;;;;;;1.95;1.60;;;44.40;35.80;;;;;;5034351;28;20213;-57
2023/07/23 07:10:46;;;;;;;5.88;2.05;;;44.40;35.50;;;;;;5034164;28;20202;-56
2023/07/23 07:13:13;;;;;;;3.42;3.13;;;44.60;35.40;;;;;;5034000;28;20347;-57
2023/07/23 07:15:41;;;;;;;2.92;2.17;;;45.10;35.30;;;;;;5033630;28;20710;-63
2023/07/23 07:18:07;;;;;;;3.20;2.28;;;45.30;34.40;;;;;;5033195;28;20205;-62
2023/07/23 07:20:34;;;;;;;2.40;1.90;;;44.70;33.50;;;;;;5033991;28;20233;-60
2023/07/23 07:23:01;;;;;;;3.45;2.10;;;43.50;34.80;;;;;;5033507;28;20206;-55
2023/07/23 07:25:29;;;;;;;3.92;2.10;;;42.40;36.30;;;;;;5033545;28;20257;-55
2023/07/23 07:27:56;;;;;;;2.90;2.42;;;41.20;36.50;;;;;;5033478;28;20228;-55
2023/07/23 07:30:22;;;;;;;2.03;1.83;;;39.70;37.70;;;;;;5033500;28;20230;-54
2023/07/23 07:32:49;;;;;;;2.67;2.38;;;38.00;39.30;;;;;;5033579;28;20217;-55
2023/07/23 07:35:16;;;;;;;2.42;1.80;;;36.80;40.80;;;;;;5033300;28;20258;-55
2023/07/23 07:37:42;;;;;;;3.33;2.17;;;36.70;41.00;;;;;;5033040;28;20577;-55
2023/07/23 07:40:12;;;;;;;3.08;2.40;;;37.00;40.90;;;;;;5033561;28;20210;-55
2023/07/23 07:42:41;;;;;;;2.92;2.00;;;37.70;40.20;;;;;;5033686;28;20663;-57
2023/07/23 07:45:09;;;;;;;1.90;1.70;;;37.50;40.40;;;;;;5033270;28;20234;-55
2023/07/23 07:47:35;;;;;;;3.17;2.33;;;36.80;41.40;;;;;;5034142;28;20249;-56
2023/07/23 07:50:05;;;;;;;3.83;2.10;;;35.70;42.80;;;;;;5033988;28;20213;-55
2023/07/23 07:52:32;;;;;;;2.85;1.80;;;34.50;44.30;;;;;;5034747;28;20225;-55
2023/07/23 07:55:00;;;;;;;4.30;2.22;;;33.60;45.60;;;;;;5033173;28;20225;-55
2023/07/23 07:57:27;;;;;;;2.72;1.90;;;33.00;46.40;;;;;;5032963;28;20225;-55
2023/07/23 07:59:55;;;;;;;3.10;1.80;;;32.60;47.20;;;;;;5032957;28;20213;-55
2023/07/23 08:02:23;;;;;;;3.35;1.67;;;32.70;47.40;;;;;;5032859;28;20685;-55
2023/07/23 08:04:50;;;;;;;1.80;1.60;;;33.00;47.40;;;;;;5032941;28;20238;-56
2023/07/23 08:07:19;;;;;;;2.83;1.90;;;33.70;46.20;;;;;;5032870;28;20209;-55
2023/07/23 08:09:47;;;;;;;3.20;1.80;;;33.80;46.20;;;;;;5032983;28;20266;-55
2023/07/23 08:12:16;;;;;;;3.05;1.90;;;33.30;46.10;;;;;;5032769;28;20228;-54
2023/07/23 08:14:44;;;;;;;1.80;1.40;;;33.00;46.70;;;;;;5032734;28;20206;-55
2023/07/23 08:17:13;;;;;;;1.77;1.67;;;33.00;46.70;;;;;;5032195;28;20206;-55
2023/07/23 08:19:40;;;;;;;2.35;1.60;;;33.40;46.50;;;;;;5032658;28;20217;-56
2023/07/23 08:22:08;;;;;;;2.97;2.47;;;33.70;46.20;;;;;;5032427;28;20572;-55
2023/07/23 08:24:35;;;;;;;2.40;2.20;;;34.50;45.50;;;;;;5032538;28;20230;-55
2023/07/23 08:27:05;;;;;;;4.18;1.70;;;35.80;43.80;;;;;;5032214;28;20242;-56
2023/07/23 08:29:34;;;;;;;2.38;1.45;;;36.70;43.30;;;;;;5032245;28;20214;-56
2023/07/23 08:32:02;;;;;;;2.22;1.67;;;37.50;41.80;;;;;;5032698;28;20206;-55
2023/07/23 08:34:30;;;;;;;2.22;1.75;;;37.80;41.40;;;;;;5032448;28;20206;-56
2023/07/23 08:36:58;;;;;;;2.80;1.63;;;38.10;41.10;;;;;;5032049;28;20232;-56
2023/07/23 08:39:25;;;;;;;3.70;2.03;;;38.30;40.80;;;;;;5014699;28;20578;-53
2023/07/23 08:42:09;;;;;;;2.08;1.75;;;38.10;41.10;;;;;;5017796;28;20207;-55
2023/07/23 08:45:05;;;;;;;2.10;1.77;;;37.60;41.70;;;;;;5031600;28;20614;-58
2023/07/23 08:47:38;;;;;;;2.78;1.95;;;37.20;42.20;;;;;;5031687;28;20610;-56
2023/07/23 08:50:07;;;;;;;2.00;1.80;;;36.50;43.20;;;;;;5032089;28;20576;-55
2023/07/23 08:52:34;;;;;;;2.40;1.98;;;35.90;44.00;;;;;;5031594;28;20225;-56
2023/07/23 08:55:01;;;;;;;3.17;1.67;;;35.30;45.10;;;;;;5032178;28;20202;-56
2023/07/23 08:57:29;;;;;;;2.60;1.80;;;34.80;45.60;;;;;;5031345;28;20245;-56
2023/07/23 08:59:57;;;;;;;2.50;2.28;;;34.40;46.00;;;;;;5032082;28;20211;-56
2023/07/23 09:02:26;;;;;;;2.03;1.70;;;34.20;46.20;;;;;;5031640;28;20682;-56
2023/07/23 09:04:53;;;;;;;2.22;2.03;;;34.10;46.70;;;;;;5031553;28;20644;-57
2023/07/23 09:07:21;;;;;;;4.28;2.00;;;34.00;46.60;;;;;;5031133;28;20238;-55
2023/07/23 09:09:49;;;;;;;3.78;1.85;;;33.80;47.20;;;;;;5031499;28;20273;-55
2023/07/23 09:12:16;;;;;;;2.33;1.77;;;33.60;47.10;;;;;;5031601;28;20561;-55
2023/07/23 09:14:44;;;;;;;2.00;1.80;;;33.30;47.70;;;;;;5031336;28;20226;-58
2023/07/23 09:17:18;;;;;;;2.40;1.67;;;33.10;48.20;;;;;;5031215;28;20213;-55
2023/07/23 09:19:44;;;;;;;3.05;2.45;;;33.10;48.40;;;;;;5031579;28;20214;-56
2023/07/23 09:22:11;;;;;;;2.78;1.55;;;32.80;48.90;;;;;;5031145;28;20202;-57
2023/07/23 09:24:39;;;;;;;2.22;1.60;;;32.80;48.80;;;;;;5031636;28;20313;-54
2023/07/23 09:27:10;;;;;;;1.88;1.38;;;32.80;48.80;;;;;;5030968;28;20241;-59
2023/07/23 09:29:37;;;;;;;1.60;1.40;;;32.60;48.90;;;;;;5031395;28;20632;-57
2023/07/23 09:32:05;;;;;;;2.60;1.63;;;32.50;49.40;;;;;;5031125;28;20206;-58
2023/07/23 09:34:34;;;;;;;1.63;1.40;;;32.60;49.00;;;;;;5019796;28;20203;-58
2023/07/23 09:37:00;;;;;;;1.90;1.58;;;32.50;49.30;;;;;;5010989;28;20736;-59
2023/07/23 09:39:32;;;;;;;3.35;1.50;;;32.60;49.40;;;;;;5011780;28;20726;-58
2023/07/23 09:42:04;;;;;;;1.85;1.33;;;32.70;49.20;;;;;;5011119;28;20217;-57
2023/07/23 09:44:31;;;;;;;2.90;1.40;;;32.60;48.90;;;;;;5011591;28;20579;-57
2023/07/23 09:46:59;;;;;;;2.40;1.50;;;32.60;49.20;;;;;;5010772;28;20242;-59
2023/07/23 09:49:29;;;;;;;1.38;1.23;;;32.30;49.90;;;;;;5011652;28;20229;-58
2023/07/23 09:51:56;;;;;;;2.13;1.58;;;32.40;50.00;;;;;;5011306;28;20198;-58
2023/07/23 09:54:23;;;;;;;3.13;1.50;;;32.50;49.70;;;;;;5011774;28;20207;-58
2023/07/23 09:56:50;;;;;;;2.22;1.60;;;32.40;49.90;;;;;;5011399;28;20226;-57
2023/07/23 09:59:19;;;;;;;4.88;1.83;;;32.20;49.90;;;;;;5010963;28;20207;-56
2023/07/23 10:01:46;;;;;;;2.80;1.92;;;32.10;50.00;;;;;;5011566;28;20501;-58
2023/07/23 10:04:16;;;;;;;2.03;1.60;;;31.90;51.10;;;;;;5011468;28;20241;-60
2023/07/23 10:06:43;;;;;;;2.95;2.22;;;31.90;50.80;;;;;;5011387;28;20233;-61
2023/07/23 10:09:13;;;;;;;1.98;1.70;;;31.90;51.10;;;;;;5011701;28;20207;-58
2023/07/23 10:11:40;;;;;;;2.22;1.50;;;31.90;50.90;;;;;;5010932;28;20207;-56
2023/07/23 10:14:06;;;;;;;2.08;1.42;;;31.90;51.10;;;;;;5011497;28;20218;-59
2023/07/23 10:16:39;;;;;;;1.63;1.50;;;31.90;50.70;;;;;;5010965;28;20226;-59
2023/07/23 10:19:08;;;;;;;2.53;1.52;;;31.90;49.50;;;;;;5017963;28;20718;-59
2023/07/23 10:21:36;;;;;;;3.38;2.30;;;31.60;49.10;;;;;;5030630;28;20210;-58
2023/07/23 10:24:04;;;;;;;2.40;1.60;;;31.40;49.80;;;;;;5030503;28;20219;-58
2023/07/23 10:26:39;;;;;;;3.25;1.80;;;31.30;49.60;;;;;;5030612;28;20319;-60
2023/07/23 10:29:11;;;;;;;1.92;1.60;;;31.30;49.30;;;;;;5031075;28;20209;-60
2023/07/23 10:31:40;;;;;;;2.63;1.60;;;31.40;49.40;;;;;;5030934;28;20301;-60
2023/07/23 10:34:41;;;;;;;2.42;1.60;;;31.70;49.10;;;;;;5030812;28;20202;-61
2023/07/23 10:37:12;;;;;;;1.98;1.63;;;31.90;48.60;;;;;;5031061;28;20284;-60
2023/07/23 10:39:40;;;;;;;3.03;2.17;;;32.10;48.00;;;;;;5031189;28;20623;-58
2023/07/23 10:42:07;;;;;;;1.73;1.60;;;32.30;48.10;;;;;;5031239;28;20332;-62
2023/07/23 10:44:33;;;;;;;2.50;1.80;;;32.40;47.30;;;;;;5030664;28;20301;-61
2023/07/23 10:47:31;;;;;;;4.15;1.60;;;32.40;46.70;;;;;;5030223;28;20274;-56
2023/07/23 10:50:11;;;;;;;2.60;1.73;;;32.50;47.10;;;;;;5031539;28;20622;-60
2023/07/23 10:52:38;;;;;;;1.83;1.70;;;32.60;46.70;;;;;;5032749;28;20216;-57
2023/07/23 10:55:08;;;;;;;2.67;1.63;;;32.80;46.60;;;;;;5034408;28;20768;-58
2023/07/23 10:57:38;;;;;;;1.98;1.60;;;32.80;46.60;;;;;;5034082;28;20217;-58
2023/07/23 11:00:19;;;;;;;2.35;1.70;;;32.90;46.60;;;;;;5024144;28;20674;-57
2023/07/23 11:02:48;;;;;;;3.08;1.65;;;33.00;46.40;;;;;;5014024;28;20211;-59
2023/07/23 11:05:15;;;;;;;1.52;1.40;;;33.00;46.70;;;;;;5014526;28;20706;-58
2023/07/23 11:07:42;;;;;;;3.58;2.90;;;33.00;46.70;;;;;;5014268;28;20616;-62
2023/07/23 11:10:22;;;;;;;5.05;3.90;;;32.90;46.90;;;;;;5014077;28;20222;-62
2023/07/23 11:12:49;;;;;;;2.17;1.98;;;32.80;47.00;;;;;;5014029;28;20214;-58
2023/07/23 11:15:16;;;;;;;3.88;1.70;;;32.80;46.80;;;;;;5014458;28;20227;-57
2023/07/23 11:17:43;;;;;;;3.03;2.20;;;32.70;46.70;;;;;;5013866;28;20207;-58
2023/07/23 11:20:12;;;;;;;3.15;1.92;;;32.90;47.10;;;;;;5014684;28;20218;-58
2023/07/23 11:22:43;;;;;;;2.33;1.60;;;33.00;47.10;;;;;;5014426;28;20211;-58
2023/07/23 11:25:16;;;;;;;2.58;1.90;;;33.20;47.00;;;;;;5014065;28;20272;-57
2023/07/23 11:27:42;;;;;;;2.20;1.63;;;33.30;47.00;;;;;;5014436;28;20238;-59
2023/07/23 11:30:13;;;;;;;2.47;1.70;;;33.50;46.70;;;;;;5014896;28;20215;-58
2023/07/23 11:32:40;;;;;;;3.15;1.83;;;33.90;46.00;;;;;;5015514;28;20207;-57
2023/07/23 11:35:09;;;;;;;1.65;1.48;;;33.90;46.00;;;;;;5014419;28;20222;-58
2023/07/23 11:37:37;;;;;;;2.65;2.03;;;33.80;45.90;;;;;;5014428;28;20215;-58
2023/07/23 11:40:04;;;;;;;1.95;1.75;;;33.60;45.50;;;;;;5014508;28;20731;-58
2023/07/23 11:42:33;;;;;;;2.30;2.10;;;33.60;45.00;;;;;;5012850;28;20292;-59
2023/07/23 11:45:00;;;;;;;3.33;1.83;;;33.40;45.50;;;;;;5013683;28;20591;-60
2023/07/23 11:47:28;;;;;;;2.55;1.90;;;33.30;45.50;;;;;;5015938;28;20736;-60
2023/07/23 11:49:54;;;;;;;5.65;2.50;;;33.20;45.40;;;;;;5033174;28;20252;-60
2023/07/23 11:52:23;;;;;;;2.42;2.05;;;33.20;46.60;;;;;;5033410;28;20657;-58
2023/07/23 11:54:51;;;;;;;2.90;2.60;;;33.30;46.10;;;;;;5033403;28;20674;-56
2023/07/23 11:57:18;;;;;;;2.45;2.00;;;33.40;46.00;;;;;;5033347;28;20206;-56
2023/07/23 11:59:44;;;;;;;4.22;3.55;;;33.60;45.70;;;;;;5033251;28;20680;-56
2023/07/23 12:02:11;;;;;;;3.17;2.40;;;33.90;45.90;;;;;;5033201;28;20578;-58
2023/07/23 12:04:38;;;;;;;2.30;2.10;;;34.10;45.90;;;;;;5033060;28;20205;-58
2023/07/23 12:07:06;;;;;;;5.70;2.20;;;34.10;44.70;;;;;;5033107;28;20238;-53
2023/07/23 12:09:35;;;;;;;3.13;2.33;;;34.10;45.30;;;;;;5033667;28;20638;-53
2023/07/23 12:12:03;;;;;;;2.50;2.08;;;34.10;44.80;;;;;;5033186;28;20238;-58
2023/07/23 12:14:30;;;;;;;3.75;2.50;;;34.10;44.70;;;;;;5032871;28;20217;-56
2023/07/23 12:16:58;;;;;;;2.30;1.95;;;34.20;44.30;;;;;;5032667;28;20222;-56
2023/07/23 12:19:25;;;;;;;2.38;1.98;;;34.20;44.50;;;;;;5033294;28;20225;-56
2023/07/23 12:21:54;;;;;;;2.55;1.90;;;34.10;42.90;;;;;;5032847;28;20210;-55
2023/07/23 12:24:23;;;;;;;2.78;2.10;;;33.80;42.80;;;;;;5032641;28;20244;-56
2023/07/23 12:26:52;;;;;;;2.45;2.22;;;33.50;43.10;;;;;;5032609;28;20234;-55
2023/07/23 12:29:22;;;;;;;3.90;2.10;;;33.40;43.50;;;;;;5032902;28;20210;-55
2023/07/23 12:31:50;;;;;;;3.40;2.33;;;33.20;43.40;;;;;;5032815;28;20209;-55
2023/07/23 12:34:19;;;;;;;2.95;2.45;;;33.00;43.50;;;;;;5032507;28;20213;-55
2023/07/23 12:36:45;;;;;;;5.60;3.30;;;32.80;43.50;;;;;;5032182;28;20226;-56
2023/07/23 12:39:12;;;;;;;3.55;2.40;;;32.80;43.40;;;;;;5032299;28;20238;-58
2023/07/23 12:41:39;;;;;;;3.60;2.60;;;32.70;43.60;;;;;;5032103;28;20233;-56
2023/07/23 12:44:06;;;;;;;4.15;2.40;;;32.70;44.00;;;;;;5032301;28;20214;-56
2023/07/23 12:46:34;;;;;;;2.20;2.00;;;32.50;43.50;;;;;;5031973;28;20273;-56
2023/07/23 12:49:01;;;;;;;6.00;2.70;;;32.20;43.60;;;;;;5032197;28;20208;-56
2023/07/23 12:51:27;;;;;;;7.25;2.40;;;32.10;44.10;;;;;;5032223;28;20666;-55